createdAt,value
2017-05-27T00:00:16.056Z,1013.94
2017-05-27T00:01:26.105Z,1013.96
2017-05-27T00:02:36.062Z,1014.02
2017-05-27T00:03:46.000Z,1013.97
2017-05-27T00:04:55.627Z,1014
2017-05-27T00:06:05.249Z,1013.97
2017-05-27T00:07:14.101Z,1013.99
2017-05-27T00:08:23.417Z,1013.95
2017-05-27T00:09:33.670Z,1013.99
2017-05-27T00:10:43.897Z,1014
2017-05-27T00:11:54.135Z,1013.97
2017-05-27T00:13:04.130Z,1014.02
2017-05-27T00:14:14.373Z,1014.02
2017-05-27T00:15:24.010Z,1014.01
2017-05-27T00:16:33.938Z,1014.04
2017-05-27T00:17:43.884Z,1014.04
2017-05-27T00:18:53.811Z,1014.06
2017-05-27T00:20:03.763Z,1013.99
2017-05-27T00:21:13.984Z,1013.97
2017-05-27T00:22:23.000Z,1014.02
2017-05-27T00:23:32.328Z,1014.01
2017-05-27T00:24:42.610Z,1014.05
2017-05-27T00:25:52.847Z,1014.04
2017-05-27T00:27:02.461Z,1014.05
2017-05-27T00:28:12.080Z,1014.04
2017-05-27T00:29:21.714Z,1014.03
2017-05-27T00:30:32.048Z,1014.05
2017-05-27T00:31:41.971Z,1014.06
2017-05-27T00:32:52.205Z,1014.06
2017-05-27T00:34:02.443Z,1014.07
2017-05-27T00:35:12.386Z,1014.06
2017-05-27T00:36:21.695Z,1014.04
2017-05-27T00:37:31.317Z,1014.1
2017-05-27T00:38:41.567Z,1014.05
2017-05-27T00:39:51.869Z,1014.01
2017-05-27T00:41:01.794Z,1014.02
2017-05-27T00:42:12.376Z,1014.03
2017-05-27T00:43:22.304Z,1013.99
2017-05-27T00:44:31.618Z,1013.98
2017-05-27T00:45:41.843Z,1013.99
2017-05-27T00:46:52.082Z,1013.96
2017-05-27T00:48:02.047Z,1013.99
2017-05-27T00:49:11.970Z,1013.96
2017-05-27T00:50:22.253Z,1014
2017-05-27T00:51:32.182Z,1013.98
2017-05-27T00:52:42.092Z,1013.99
2017-05-27T00:53:51.130Z,1013.99
2017-05-27T00:55:01.368Z,1014.02
2017-05-27T00:56:10.976Z,1014.03
2017-05-27T00:57:21.215Z,1014.03
2017-05-27T00:58:30.855Z,1014.05
2017-05-27T00:59:41.263Z,1014.06
2017-05-27T01:00:51.489Z,1014.05
2017-05-27T01:02:00.795Z,1014.03
2017-05-27T01:03:10.738Z,1014.07
2017-05-27T01:04:20.667Z,1014.05
2017-05-27T01:05:30.136Z,1014.02
2017-05-27T01:06:40.066Z,1014
2017-05-27T01:07:50.294Z,1014.02
2017-05-27T01:09:00.225Z,1014.02
2017-05-27T01:10:09.845Z,1014.08
2017-05-27T01:11:19.918Z,1014.09
2017-05-27T01:12:29.847Z,1014.09
2017-05-27T01:13:40.085Z,1014.13
2017-05-27T01:14:50.018Z,1014.15
2017-05-27T01:15:59.629Z,1014.09
2017-05-27T01:17:09.750Z,1014.15
2017-05-27T01:18:19.694Z,1014.1
2017-05-27T01:19:29.631Z,1014.14
2017-05-27T01:20:39.557Z,1014.15
2017-05-27T01:21:49.805Z,1014.22
2017-05-27T01:23:00.195Z,1014.22
2017-05-27T01:24:09.505Z,1014.2
2017-05-27T01:25:19.427Z,1014.21
2017-05-27T01:26:29.046Z,1014.17
2017-05-27T01:27:38.962Z,1014.21
2017-05-27T01:28:49.210Z,1014.21
2017-05-27T01:29:59.126Z,1014.2
2017-05-27T01:31:09.050Z,1014.21
2017-05-27T01:32:18.986Z,1014.21
2017-05-27T01:33:28.921Z,1014.21
2017-05-27T01:34:38.849Z,1014.22
2017-05-27T01:35:49.082Z,1014.23
2017-05-27T01:36:59.004Z,1014.22
2017-05-27T01:38:08.939Z,1014.23
2017-05-27T01:39:18.253Z,1014.23
2017-05-27T01:40:27.978Z,1014.19
2017-05-27T01:41:38.216Z,1014.2
2017-05-27T01:42:47.536Z,1014.17
2017-05-27T01:43:57.168Z,1014.17
2017-05-27T01:45:06.786Z,1014.19
2017-05-27T01:46:17.250Z,1014.18
2017-05-27T01:47:27.212Z,1014.2
2017-05-27T01:48:36.849Z,1014.21
2017-05-27T01:49:46.780Z,1014.21
2017-05-27T01:50:56.406Z,1014.22
2017-05-27T01:52:06.180Z,1014.19
2017-05-27T01:53:16.470Z,1014.18
2017-05-27T01:54:26.388Z,1014.15
2017-05-27T01:55:36.327Z,1014.19
2017-05-27T01:56:46.263Z,1014.17
2017-05-27T01:57:56.204Z,1014.17
2017-05-27T01:59:06.128Z,1014.15
2017-05-27T02:00:16.058Z,1014.15
2017-05-27T02:01:25.999Z,1014.15
2017-05-27T02:02:35.630Z,1014.16
2017-05-27T02:03:46.184Z,1014.18
2017-05-27T02:04:56.119Z,1014.15
2017-05-27T02:06:05.737Z,1014.16
2017-05-27T02:07:15.046Z,1014.14
2017-05-27T02:08:24.662Z,1014.14
2017-05-27T02:09:34.341Z,1014.13
2017-05-27T02:10:44.270Z,1014.15
2017-05-27T02:11:54.224Z,1014.21
2017-05-27T02:13:04.151Z,1014.16
2017-05-27T02:14:14.090Z,1014.2
2017-05-27T02:15:24.037Z,1014.19
2017-05-27T02:16:34.275Z,1014.24
2017-05-27T02:17:43.577Z,1014.23
2017-05-27T02:18:53.521Z,1014.26
2017-05-27T02:20:02.850Z,1014.28
2017-05-27T02:21:12.587Z,1014.25
2017-05-27T02:22:22.529Z,1014.3
2017-05-27T02:23:32.157Z,1014.28
2017-05-27T02:24:42.401Z,1014.27
2017-05-27T02:25:52.011Z,1014.26
2017-05-27T02:27:01.322Z,1014.26
2017-05-27T02:28:11.554Z,1014.23
2017-05-27T02:29:20.870Z,1014.24
2017-05-27T02:30:31.394Z,1014.25
2017-05-27T02:31:41.024Z,1014.23
2017-05-27T02:32:51.094Z,1014.24
2017-05-27T02:34:01.028Z,1014.28
2017-05-27T02:35:10.950Z,1014.25
2017-05-27T02:36:20.886Z,1014.28
2017-05-27T02:37:30.502Z,1014.28
2017-05-27T02:38:40.545Z,1014.27
2017-05-27T02:39:50.159Z,1014.31
2017-05-27T02:41:00.385Z,1014.33
2017-05-27T02:42:10.305Z,1014.34
2017-05-27T02:43:20.550Z,1014.35
2017-05-27T02:44:30.903Z,1014.37
2017-05-27T02:45:40.534Z,1014.37
2017-05-27T02:46:50.144Z,1014.38
2017-05-27T02:48:00.086Z,1014.45
2017-05-27T02:49:10.069Z,1014.45
2017-05-27T02:50:20.659Z,1014.42
2017-05-27T02:51:30.905Z,1014.44
2017-05-27T02:52:40.531Z,1014.45
2017-05-27T02:53:50.850Z,1014.43
2017-05-27T02:55:00.476Z,1014.39
2017-05-27T02:56:10.444Z,1014.42
2017-05-27T02:57:20.376Z,1014.41
2017-05-27T02:58:30.306Z,1014.38
2017-05-27T02:59:40.239Z,1014.41
2017-05-27T03:00:50.185Z,1014.37
2017-05-27T03:02:00.412Z,1014.36
2017-05-27T03:03:10.330Z,1014.32
2017-05-27T03:04:20.576Z,1014.36
2017-05-27T03:05:30.809Z,1014.34
2017-05-27T03:06:40.736Z,1014.33
2017-05-27T03:07:51.051Z,1014.33
2017-05-27T03:09:00.991Z,1014.3
2017-05-27T03:10:10.921Z,1014.35
2017-05-27T03:11:21.164Z,1014.3
2017-05-27T03:12:31.398Z,1014.32
2017-05-27T03:13:41.492Z,1014.29
2017-05-27T03:14:52.123Z,1014.24
2017-05-27T03:16:02.054Z,1014.29
2017-05-27T03:17:11.365Z,1014.24
2017-05-27T03:18:20.986Z,1014.26
2017-05-27T03:19:31.335Z,1014.21
2017-05-27T03:20:41.266Z,1014.22
2017-05-27T03:21:50.591Z,1014.23
2017-05-27T03:23:00.212Z,1014.23
2017-05-27T03:24:10.447Z,1014.21
2017-05-27T03:25:19.920Z,1014.24
2017-05-27T03:26:29.862Z,1014.21
2017-05-27T03:27:39.797Z,1014.27
2017-05-27T03:28:49.733Z,1014.23
2017-05-27T03:29:59.984Z,1014.24
2017-05-27T03:31:09.339Z,1014.28
2017-05-27T03:32:19.576Z,1014.22
2017-05-27T03:33:29.230Z,1014.28
2017-05-27T03:34:39.472Z,1014.3
2017-05-27T03:35:49.701Z,1014.34
2017-05-27T03:36:59.484Z,1014.33
2017-05-27T03:38:09.109Z,1014.34
2017-05-27T03:39:19.334Z,1014.36
2017-05-27T03:40:29.568Z,1014.38
2017-05-27T03:41:39.186Z,1014.41
2017-05-27T03:42:48.805Z,1014.38
2017-05-27T03:43:58.749Z,1014.38
2017-05-27T03:45:08.759Z,1014.43
2017-05-27T03:46:18.992Z,1014.36
2017-05-27T03:47:28.602Z,1014.43
2017-05-27T03:48:38.843Z,1014.44
2017-05-27T03:49:48.466Z,1014.43
2017-05-27T03:50:58.403Z,1014.47
2017-05-27T03:52:08.018Z,1014.49
2017-05-27T03:53:17.963Z,1014.52
2017-05-27T03:54:27.070Z,1014.48
2017-05-27T03:55:37.313Z,1014.51
2017-05-27T03:56:47.577Z,1014.47
2017-05-27T03:57:57.799Z,1014.46
2017-05-27T03:59:07.762Z,1014.48
2017-05-27T04:00:18.358Z,1014.44
2017-05-27T04:01:27.994Z,1014.45
2017-05-27T04:02:37.912Z,1014.47
2017-05-27T04:03:47.560Z,1014.44
2017-05-27T04:04:57.800Z,1014.45
2017-05-27T04:06:07.883Z,1014.45
2017-05-27T04:07:17.798Z,1014.47
2017-05-27T04:08:27.758Z,1014.47
2017-05-27T04:09:37.984Z,1014.46
2017-05-27T04:10:48.210Z,1014.47
2017-05-27T04:11:57.882Z,1014.49
2017-05-27T04:13:08.114Z,1014.49
2017-05-27T04:14:18.737Z,1014.52
2017-05-27T04:15:28.661Z,1014.57
2017-05-27T04:16:37.660Z,1014.55
2017-05-27T04:17:47.893Z,1014.64
2017-05-27T04:18:57.891Z,1014.62
2017-05-27T04:20:08.119Z,1014.66
2017-05-27T04:21:18.057Z,1014.7
2017-05-27T04:22:28.303Z,1014.7
2017-05-27T04:23:38.076Z,1014.71
2017-05-27T04:24:48.325Z,1014.7
2017-05-27T04:25:58.263Z,1014.74
2017-05-27T04:27:07.589Z,1014.79
2017-05-27T04:28:16.902Z,1014.79
2017-05-27T04:29:27.290Z,1014.8
2017-05-27T04:30:37.535Z,1014.81
2017-05-27T04:31:47.159Z,1014.8
2017-05-27T04:32:57.392Z,1014.82
2017-05-27T04:34:07.642Z,1014.81
2017-05-27T04:35:18.041Z,1014.82
2017-05-27T04:36:27.990Z,1014.8
2017-05-27T04:37:37.946Z,1014.82
2017-05-27T04:38:47.275Z,1014.84
2017-05-27T04:39:56.931Z,1014.84
2017-05-27T04:41:06.367Z,1014.83
2017-05-27T04:42:16.004Z,1014.83
2017-05-27T04:43:25.972Z,1014.84
2017-05-27T04:44:35.934Z,1014.85
2017-05-27T04:45:45.971Z,1014.85
2017-05-27T04:46:56.382Z,1014.8
2017-05-27T04:48:06.034Z,1014.82
2017-05-27T04:49:16.273Z,1014.85
2017-05-27T04:50:25.924Z,1014.87
2017-05-27T04:51:35.876Z,1014.87
2017-05-27T04:52:46.138Z,1014.87
2017-05-27T04:53:55.499Z,1014.9
2017-05-27T04:55:05.750Z,1014.84
2017-05-27T04:56:15.423Z,1014.85
2017-05-27T04:57:25.044Z,1014.86
2017-05-27T04:58:35.029Z,1014.86
2017-05-27T04:59:44.710Z,1014.86
2017-05-27T05:00:54.991Z,1014.88
2017-05-27T05:02:04.341Z,1014.89
2017-05-27T05:03:13.652Z,1014.87
2017-05-27T05:04:23.633Z,1014.9
2017-05-27T05:05:33.569Z,1014.9
2017-05-27T05:06:43.217Z,1014.9
2017-05-27T05:07:53.188Z,1014.87
2017-05-27T05:09:03.113Z,1014.92
2017-05-27T05:10:13.342Z,1014.9
2017-05-27T05:11:23.280Z,1014.9
2017-05-27T05:12:33.535Z,1014.97
2017-05-27T05:13:43.802Z,1014.97
2017-05-27T05:14:54.172Z,1014.94
2017-05-27T05:16:04.750Z,1014.96
2017-05-27T05:17:15.078Z,1014.96
2017-05-27T05:18:24.724Z,1014.98
2017-05-27T05:19:34.979Z,1014.98
2017-05-27T05:20:44.673Z,1015.05
2017-05-27T05:21:54.448Z,1015.01
2017-05-27T05:23:05.618Z,1015.02
2017-05-27T05:24:15.279Z,1015.05
2017-05-27T05:25:26.431Z,1015.05
2017-05-27T05:26:36.826Z,1014.99
2017-05-27T05:27:46.522Z,1015.04
2017-05-27T05:28:55.847Z,1015.03
2017-05-27T05:30:05.789Z,1015
2017-05-27T05:31:15.958Z,1015.04
2017-05-27T05:32:25.970Z,1015.03
2017-05-27T05:33:36.030Z,1015
2017-05-27T05:34:45.986Z,1014.99
2017-05-27T05:35:55.995Z,1014.97
2017-05-27T05:37:07.179Z,1014.98
2017-05-27T05:38:16.798Z,1014.91
2017-05-27T05:39:26.409Z,1014.91
2017-05-27T05:40:36.353Z,1014.9
2017-05-27T05:41:46.631Z,1014.87
2017-05-27T05:42:57.149Z,1014.81
2017-05-27T05:44:07.585Z,1014.83
2017-05-27T05:45:17.863Z,1014.84
2017-05-27T05:46:27.546Z,1014.86
2017-05-27T05:47:37.165Z,1014.82
2017-05-27T05:48:47.092Z,1014.81
2017-05-27T05:49:57.326Z,1014.87
2017-05-27T05:51:07.254Z,1014.84
2017-05-27T05:52:17.481Z,1014.83
2017-05-27T05:53:27.107Z,1014.87
2017-05-27T05:54:36.726Z,1014.84
2017-05-27T05:55:46.651Z,1014.88
2017-05-27T05:56:56.715Z,1014.89
2017-05-27T05:58:06.936Z,1014.85
2017-05-27T05:59:17.162Z,1014.85
2017-05-27T06:00:27.419Z,1014.81
2017-05-27T06:01:37.328Z,1014.8
2017-05-27T06:02:47.095Z,1014.85
2017-05-27T06:03:56.718Z,1014.82
2017-05-27T06:05:06.647Z,1014.9
2017-05-27T06:06:16.251Z,1014.84
2017-05-27T06:07:25.869Z,1014.86
2017-05-27T06:08:35.969Z,1014.82
2017-05-27T06:09:45.889Z,1014.87
2017-05-27T06:10:55.493Z,1014.88
2017-05-27T06:12:05.422Z,1014.81
2017-05-27T06:13:15.348Z,1014.78
2017-05-27T06:14:24.697Z,1014.8
2017-05-27T06:15:34.025Z,1014.8
2017-05-27T06:16:43.943Z,1014.79
2017-05-27T06:17:53.261Z,1014.86
2017-05-27T06:19:03.549Z,1014.78
2017-05-27T06:20:13.933Z,1014.81
2017-05-27T06:21:24.174Z,1014.8
2017-05-27T06:22:34.104Z,1014.78
2017-05-27T06:23:44.038Z,1014.8
2017-05-27T06:24:53.354Z,1014.79
2017-05-27T06:26:03.619Z,1014.79
2017-05-27T06:27:13.548Z,1014.78
2017-05-27T06:28:22.613Z,1014.84
2017-05-27T06:29:32.535Z,1014.81
2017-05-27T06:30:42.209Z,1014.85
2017-05-27T06:31:51.918Z,1014.79
2017-05-27T06:33:01.839Z,1014.83
2017-05-27T06:34:11.769Z,1014.83
2017-05-27T06:35:21.697Z,1014.84
2017-05-27T06:36:31.938Z,1014.87
2017-05-27T06:37:41.700Z,1014.89
2017-05-27T06:38:51.322Z,1014.92
2017-05-27T06:40:01.240Z,1014.97
2017-05-27T06:41:10.872Z,1014.92
2017-05-27T06:42:20.191Z,1014.92
2017-05-27T06:43:30.421Z,1014.85
2017-05-27T06:44:40.343Z,1014.89
2017-05-27T06:45:50.280Z,1014.88
2017-05-27T06:47:00.501Z,1014.9
2017-05-27T06:48:10.717Z,1014.84
2017-05-27T06:49:20.685Z,1014.81
2017-05-27T06:50:30.614Z,1014.83
2017-05-27T06:51:40.535Z,1014.8
2017-05-27T06:52:50.451Z,1014.78
2017-05-27T06:54:00.687Z,1014.77
2017-05-27T06:55:10.663Z,1014.76
2017-05-27T06:56:20.638Z,1014.76
2017-05-27T06:57:30.865Z,1014.78
2017-05-27T06:58:40.789Z,1014.78
2017-05-27T06:59:50.430Z,1014.77
2017-05-27T07:01:00.663Z,1014.83
2017-05-27T07:02:10.890Z,1014.76
2017-05-27T07:03:21.138Z,1014.78
2017-05-27T07:04:30.452Z,1014.78
2017-05-27T07:05:40.383Z,1014.79
2017-05-27T07:06:50.654Z,1014.8
2017-05-27T07:08:00.265Z,1014.73
2017-05-27T07:09:10.194Z,1014.81
2017-05-27T07:10:20.457Z,1014.82
2017-05-27T07:11:29.785Z,1014.79
2017-05-27T07:12:39.862Z,1014.81
2017-05-27T07:13:49.486Z,1014.84
2017-05-27T07:14:59.431Z,1014.77
2017-05-27T07:16:09.044Z,1014.75
2017-05-27T07:17:18.968Z,1014.74
2017-05-27T07:18:28.737Z,1014.72
2017-05-27T07:19:38.405Z,1014.72
2017-05-27T07:20:48.025Z,1014.74
2017-05-27T07:21:58.250Z,1014.69
2017-05-27T07:23:08.181Z,1014.66
2017-05-27T07:24:18.508Z,1014.65
2017-05-27T07:25:28.123Z,1014.66
2017-05-27T07:26:38.046Z,1014.61
2017-05-27T07:27:48.287Z,1014.59
2017-05-27T07:28:58.532Z,1014.56
2017-05-27T07:30:08.134Z,1014.58
2017-05-27T07:31:17.454Z,1014.56
2017-05-27T07:32:27.388Z,1014.6
2017-05-27T07:33:37.307Z,1014.6
2017-05-27T07:34:47.573Z,1014.57
2017-05-27T07:35:57.502Z,1014.59
2017-05-27T07:37:07.420Z,1014.55
2017-05-27T07:38:17.643Z,1014.61
2017-05-27T07:39:27.560Z,1014.55
2017-05-27T07:40:37.494Z,1014.51
2017-05-27T07:41:47.455Z,1014.53
2017-05-27T07:42:57.676Z,1014.51
2017-05-27T07:44:07.292Z,1014.48
2017-05-27T07:45:17.210Z,1014.52
2017-05-27T07:46:26.843Z,1014.5
2017-05-27T07:47:36.195Z,1014.51
2017-05-27T07:48:45.808Z,1014.52
2017-05-27T07:49:56.057Z,1014.5
2017-05-27T07:51:05.664Z,1014.52
2017-05-27T07:52:15.904Z,1014.52
2017-05-27T07:53:25.259Z,1014.51
2017-05-27T07:54:34.565Z,1014.49
2017-05-27T07:55:44.488Z,1014.47
2017-05-27T07:56:54.401Z,1014.47
2017-05-27T07:58:03.727Z,1014.41
2017-05-27T07:59:13.807Z,1014.44
2017-05-27T08:00:23.756Z,1014.42
2017-05-27T08:01:33.685Z,1014.41
2017-05-27T08:02:43.301Z,1014.43
2017-05-27T08:03:53.233Z,1014.4
2017-05-27T08:05:03.608Z,1014.37
2017-05-27T08:06:12.910Z,1014.37
2017-05-27T08:07:23.137Z,1014.37
2017-05-27T08:08:33.351Z,1014.28
2017-05-27T08:09:43.589Z,1014.27
2017-05-27T08:10:52.898Z,1014.27
2017-05-27T08:12:02.507Z,1014.23
2017-05-27T08:13:11.845Z,1014.25
2017-05-27T08:14:21.458Z,1014.2
2017-05-27T08:15:31.694Z,1014.17
2017-05-27T08:16:41.706Z,1014.18
2017-05-27T08:17:51.328Z,1014.13
2017-05-27T08:19:01.249Z,1014.15
2017-05-27T08:20:11.235Z,1014.15
2017-05-27T08:21:21.147Z,1014.17
2017-05-27T08:22:31.233Z,1014.15
2017-05-27T08:23:40.847Z,1014.11
2017-05-27T08:24:50.780Z,1014.09
2017-05-27T08:26:00.701Z,1014.07
2017-05-27T08:27:10.005Z,1014.02
2017-05-27T08:28:20.087Z,1013.97
2017-05-27T08:29:29.728Z,1013.96
2017-05-27T08:30:39.964Z,1014.02
2017-05-27T08:31:49.898Z,1014.01
2017-05-27T08:32:59.223Z,1013.97
2017-05-27T08:34:09.296Z,1013.98
2017-05-27T08:35:18.918Z,1013.99
2017-05-27T08:36:28.849Z,1013.99
2017-05-27T08:37:38.454Z,1013.98
2017-05-27T08:38:48.375Z,1013.97
2017-05-27T08:39:58.820Z,1014
2017-05-27T08:41:08.443Z,1013.95
2017-05-27T08:42:18.683Z,1014
2017-05-27T08:43:28.905Z,1014.01
2017-05-27T08:44:38.528Z,1014.03
2017-05-27T08:45:48.808Z,1014.05
2017-05-27T08:46:59.035Z,1014.06
2017-05-27T08:48:08.653Z,1014.06
2017-05-27T08:49:18.598Z,1014.03
2017-05-27T08:50:27.906Z,1014.04
2017-05-27T08:51:37.527Z,1014.01
2017-05-27T08:52:47.770Z,1014
2017-05-27T08:53:58.005Z,1013.96
2017-05-27T08:55:07.639Z,1013.93
2017-05-27T08:56:17.559Z,1013.87
2017-05-27T08:57:27.295Z,1013.87
2017-05-27T08:58:37.217Z,1013.88
2017-05-27T08:59:46.826Z,1013.85
2017-05-27T09:00:56.743Z,1013.84
2017-05-27T09:02:06.685Z,1013.82
2017-05-27T09:03:15.765Z,1013.83
2017-05-27T09:04:25.997Z,1013.78
2017-05-27T09:05:36.321Z,1013.75
2017-05-27T09:06:46.669Z,1013.74
2017-05-27T09:07:56.900Z,1013.86
2017-05-27T09:09:06.543Z,1013.8
2017-05-27T09:10:16.171Z,1013.8
2017-05-27T09:11:26.393Z,1013.75
2017-05-27T09:12:36.032Z,1013.81
2017-05-27T09:13:45.745Z,1013.77
2017-05-27T09:14:55.987Z,1013.77
2017-05-27T09:16:05.915Z,1013.78
2017-05-27T09:17:15.525Z,1013.73
2017-05-27T09:18:25.445Z,1013.79
2017-05-27T09:19:35.363Z,1013.77
2017-05-27T09:20:45.295Z,1013.66
2017-05-27T09:21:55.220Z,1013.75
2017-05-27T09:23:04.844Z,1013.77
2017-05-27T09:24:14.767Z,1013.73
2017-05-27T09:25:24.394Z,1013.68
2017-05-27T09:26:34.623Z,1013.76
2017-05-27T09:27:44.243Z,1013.7
2017-05-27T09:28:54.187Z,1013.65
2017-05-27T09:30:03.810Z,1013.64
2017-05-27T09:31:13.114Z,1013.61
2017-05-27T09:32:23.041Z,1013.63
2017-05-27T09:33:32.348Z,1013.6
2017-05-27T09:34:42.351Z,1013.6
2017-05-27T09:35:52.589Z,1013.56
2017-05-27T09:37:02.209Z,1013.58
2017-05-27T09:38:11.819Z,1013.5
2017-05-27T09:39:21.739Z,1013.48
2017-05-27T09:40:31.960Z,1013.42
2017-05-27T09:41:41.888Z,1013.5
2017-05-27T09:42:52.153Z,1013.42
2017-05-27T09:44:01.468Z,1013.35
2017-05-27T09:45:11.706Z,1013.31
2017-05-27T09:46:21.014Z,1013.37
2017-05-27T09:47:30.940Z,1013.41
2017-05-27T09:48:41.168Z,1013.3
2017-05-27T09:49:50.778Z,1013.32
2017-05-27T09:51:00.422Z,1013.36
2017-05-27T09:52:10.646Z,1013.29
2017-05-27T09:53:19.985Z,1013.36
2017-05-27T09:54:29.911Z,1013.33
2017-05-27T09:55:39.542Z,1013.33
2017-05-27T09:56:48.250Z,1013.28
2017-05-27T09:57:57.890Z,1013.26
2017-05-27T09:59:07.824Z,1013.24
2017-05-27T10:00:17.137Z,1013.2
2017-05-27T10:01:26.455Z,1013.2
2017-05-27T10:02:35.753Z,1013.21
2017-05-27T10:03:44.789Z,1013.2
2017-05-27T10:04:54.144Z,1013.26
2017-05-27T10:06:03.451Z,1013.27
2017-05-27T10:07:12.789Z,1013.17
2017-05-27T10:08:21.807Z,1013.19
2017-05-27T10:09:30.815Z,1013.23
2017-05-27T10:10:40.750Z,1013.14
2017-05-27T10:11:50.361Z,1013.11
2017-05-27T10:13:00.577Z,1013.15
2017-05-27T10:14:10.191Z,1013.02
2017-05-27T10:15:19.814Z,1012.99
2017-05-27T10:16:29.744Z,1013.01
2017-05-27T10:17:39.671Z,1013.1
2017-05-27T10:18:49.598Z,1013.08
2017-05-27T10:19:59.523Z,1013.03
2017-05-27T10:21:09.447Z,1013
2017-05-27T10:22:19.057Z,1013.04
2017-05-27T10:23:29.276Z,1013.04
2017-05-27T10:24:39.496Z,1012.99
2017-05-27T10:25:49.430Z,1013.04
2017-05-27T10:26:59.653Z,1013.03
2017-05-27T10:28:08.994Z,1013.09
2017-05-27T10:29:18.296Z,1013.08
2017-05-27T10:30:28.225Z,1013.1
2017-05-27T10:31:38.473Z,1013.12
2017-05-27T10:32:48.395Z,1013.14
2017-05-27T10:33:57.708Z,1013.09
2017-05-27T10:35:07.946Z,1013.18
2017-05-27T10:36:17.553Z,1013.14
2017-05-27T10:37:26.847Z,1013.16
2017-05-27T10:38:36.146Z,1013.16
2017-05-27T10:39:45.769Z,1013.19
2017-05-27T10:40:55.381Z,1013.16
2017-05-27T10:42:05.303Z,1013.14
2017-05-27T10:43:14.934Z,1013.14
2017-05-27T10:44:24.557Z,1013.11
2017-05-27T10:45:34.780Z,1013.17
2017-05-27T10:46:45.011Z,1013.13
2017-05-27T10:47:54.627Z,1013.1
2017-05-27T10:49:03.935Z,1013.03
2017-05-27T10:50:14.183Z,1013.01
2017-05-27T10:51:24.432Z,1012.93
2017-05-27T10:52:34.666Z,1012.99
2017-05-27T10:53:44.287Z,1012.94
2017-05-27T10:54:53.906Z,1012.99
2017-05-27T10:56:04.134Z,1013.02
2017-05-27T10:57:14.058Z,1013.02
2017-05-27T10:58:23.985Z,1012.96
2017-05-27T10:59:33.295Z,1012.97
2017-05-27T11:00:43.517Z,1012.97
2017-05-27T11:01:53.435Z,1012.93
2017-05-27T11:03:03.354Z,1013.01
2017-05-27T11:04:13.267Z,1013.01
2017-05-27T11:05:23.200Z,1012.94
2017-05-27T11:06:33.121Z,1012.94
2017-05-27T11:07:43.043Z,1012.98
2017-05-27T11:08:52.356Z,1012.98
2017-05-27T11:10:01.357Z,1013.08
2017-05-27T11:11:10.720Z,1013.01
2017-05-27T11:12:20.326Z,1012.99
2017-05-27T11:13:30.557Z,1012.97
2017-05-27T11:14:40.474Z,1012.96
2017-05-27T11:15:50.691Z,1012.9
2017-05-27T11:17:00.302Z,1012.92
2017-05-27T11:18:10.213Z,1012.9
2017-05-27T11:19:19.850Z,1012.91
2017-05-27T11:20:30.071Z,1012.95
2017-05-27T11:21:40.297Z,1012.92
2017-05-27T11:22:50.526Z,1012.92
2017-05-27T11:23:59.833Z,1012.88
2017-05-27T11:25:09.447Z,1012.83
2017-05-27T11:26:19.059Z,1012.85
2017-05-27T11:27:28.828Z,1012.87
2017-05-27T11:28:37.878Z,1012.84
2017-05-27T11:29:47.799Z,1012.92
2017-05-27T11:30:57.406Z,1012.89
2017-05-27T11:32:07.632Z,1012.9
2017-05-27T11:33:17.561Z,1012.88
2017-05-27T11:34:27.480Z,1012.78
2017-05-27T11:35:37.111Z,1012.76
2017-05-27T11:36:47.030Z,1012.76
2017-05-27T11:37:56.952Z,1012.8
2017-05-27T11:39:07.187Z,1012.77
2017-05-27T11:40:17.123Z,1012.77
2017-05-27T11:41:26.787Z,1012.78
2017-05-27T11:42:36.708Z,1012.71
2017-05-27T11:43:46.309Z,1012.7
2017-05-27T11:44:55.613Z,1012.7
2017-05-27T11:46:05.833Z,1012.64
2017-05-27T11:47:15.444Z,1012.61
2017-05-27T11:48:25.050Z,1012.63
2017-05-27T11:49:34.359Z,1012.63
2017-05-27T11:50:44.593Z,1012.63
2017-05-27T11:51:54.513Z,1012.62
2017-05-27T11:53:04.138Z,1012.61
2017-05-27T11:54:13.438Z,1012.64
2017-05-27T11:55:23.355Z,1012.61
2017-05-27T11:56:33.270Z,1012.61
2017-05-27T11:57:43.186Z,1012.59
2017-05-27T11:58:52.499Z,1012.55
2017-05-27T12:00:02.415Z,1012.52
2017-05-27T12:01:12.027Z,1012.53
2017-05-27T12:02:21.637Z,1012.53
2017-05-27T12:03:31.254Z,1012.44
2017-05-27T12:04:41.478Z,1012.46
2017-05-27T12:05:51.411Z,1012.5
2017-05-27T12:07:01.349Z,1012.51
2017-05-27T12:08:10.349Z,1012.47
2017-05-27T12:09:19.656Z,1012.43
2017-05-27T12:10:29.882Z,1012.4
2017-05-27T12:11:40.138Z,1012.41
2017-05-27T12:12:50.914Z,1012.42
2017-05-27T12:14:00.833Z,1012.41
2017-05-27T12:15:11.065Z,1012.45
2017-05-27T12:16:20.366Z,1012.49
2017-05-27T12:17:30.608Z,1012.47
2017-05-27T12:18:40.332Z,1012.45
2017-05-27T12:19:49.958Z,1012.44
2017-05-27T12:21:00.750Z,1012.48
2017-05-27T12:22:11.016Z,1012.47
2017-05-27T12:23:20.954Z,1012.39
2017-05-27T12:24:30.711Z,1012.4
2017-05-27T12:25:40.718Z,1012.46
2017-05-27T12:26:50.635Z,1012.45
2017-05-27T12:28:00.250Z,1012.46
2017-05-27T12:29:10.485Z,1012.38
2017-05-27T12:30:21.096Z,1012.37
2017-05-27T12:31:32.297Z,1012.4
2017-05-27T12:32:42.254Z,1012.36
2017-05-27T12:33:52.195Z,1012.35
2017-05-27T12:35:01.822Z,1012.36
2017-05-27T12:36:11.814Z,1012.41
2017-05-27T12:37:22.441Z,1012.4
2017-05-27T12:38:31.783Z,1012.35
2017-05-27T12:39:41.392Z,1012.41
2017-05-27T12:40:51.636Z,1012.41
2017-05-27T12:42:01.572Z,1012.37
2017-05-27T12:43:11.803Z,1012.33
2017-05-27T12:44:21.105Z,1012.37
2017-05-27T12:45:31.776Z,1012.4
2017-05-27T12:46:41.774Z,1012.41
2017-05-27T12:47:51.471Z,1012.44
2017-05-27T12:49:02.105Z,1012.4
2017-05-27T12:50:12.040Z,1012.39
2017-05-27T12:51:21.732Z,1012.33
2017-05-27T12:52:31.110Z,1012.33
2017-05-27T12:53:41.731Z,1012.37
2017-05-27T12:54:51.126Z,1012.35
2017-05-27T12:56:00.513Z,1012.28
2017-05-27T12:57:09.920Z,1012.27
2017-05-27T12:58:19.223Z,1012.26
2017-05-27T12:59:27.988Z,1012.2
2017-05-27T13:00:37.217Z,1012.24
2017-05-27T13:01:46.628Z,1012.22
2017-05-27T13:02:56.023Z,1012.3
2017-05-27T13:04:05.642Z,1012.23
2017-05-27T13:05:15.882Z,1012.2
2017-05-27T13:06:25.125Z,1012.23
2017-05-27T13:07:34.539Z,1012.18
2017-05-27T13:08:44.236Z,1012.18
2017-05-27T13:09:54.250Z,1012.13
2017-05-27T13:11:04.249Z,1012.14
2017-05-27T13:12:14.497Z,1012.18
2017-05-27T13:13:24.657Z,1012.17
2017-05-27T13:14:34.042Z,1012.17
2017-05-27T13:15:44.291Z,1012.05
2017-05-27T13:16:54.762Z,1012.14
2017-05-27T13:18:04.131Z,1012.15
2017-05-27T13:19:13.746Z,1012.09
2017-05-27T13:20:23.681Z,1012.06
2017-05-27T13:21:33.285Z,1012.16
2017-05-27T13:22:43.241Z,1012.07
2017-05-27T13:23:52.694Z,1012.07
2017-05-27T13:25:03.240Z,1012.03
2017-05-27T13:26:13.546Z,1012.04
2017-05-27T13:27:23.873Z,1012.05
2017-05-27T13:28:33.854Z,1012.01
2017-05-27T13:29:44.124Z,1012.01
2017-05-27T13:30:53.524Z,1012.08
2017-05-27T13:32:03.989Z,1012.04
2017-05-27T13:33:13.533Z,1011.99
2017-05-27T13:34:23.642Z,1011.93
2017-05-27T13:35:33.114Z,1011.92
2017-05-27T13:36:43.057Z,1011.94
2017-05-27T13:37:52.754Z,1011.93
2017-05-27T13:39:02.650Z,1011.97
2017-05-27T13:40:12.406Z,1011.97
2017-05-27T13:41:22.498Z,1011.94
2017-05-27T13:42:33.144Z,1011.95
2017-05-27T13:43:44.167Z,1012
2017-05-27T13:44:53.865Z,1012.01
2017-05-27T13:46:03.795Z,1012.02
2017-05-27T13:47:13.246Z,1011.98
2017-05-27T13:48:23.644Z,1011.97
2017-05-27T13:49:33.375Z,1011.97
2017-05-27T13:50:43.686Z,1011.95
2017-05-27T13:51:53.937Z,1011.85
2017-05-27T13:53:03.643Z,1011.91
2017-05-27T13:54:13.025Z,1011.92
2017-05-27T13:55:23.347Z,1011.92
2017-05-27T13:56:33.283Z,1011.94
2017-05-27T13:57:43.241Z,1011.9
2017-05-27T13:58:54.261Z,1011.93
2017-05-27T14:00:04.259Z,1011.93
2017-05-27T14:01:14.896Z,1011.96
2017-05-27T14:02:25.206Z,1011.94
2017-05-27T14:03:35.519Z,1011.98
2017-05-27T14:04:45.773Z,1011.99
2017-05-27T14:05:56.074Z,1011.96
2017-05-27T14:07:06.725Z,1011.88
2017-05-27T14:08:16.741Z,1011.86